createdAt,value
2018-04-11T00:00:00.110Z,90.08
2018-04-11T00:01:00.018Z,90.08
2018-04-11T00:01:59.928Z,89.98
2018-04-11T00:02:59.971Z,90.26
2018-04-11T00:03:59.744Z,90.17
2018-04-11T00:04:59.654Z,90.55
2018-04-11T00:05:59.564Z,90.64
2018-04-11T00:06:59.472Z,90.45
2018-04-11T00:07:59.414Z,91.03
2018-04-11T00:08:59.289Z,91.13
2018-04-11T00:09:59.295Z,91.22
2018-04-11T00:10:59.110Z,91.31
2018-04-11T00:11:59.014Z,91.03
2018-04-11T00:12:58.957Z,91.31
2018-04-11T00:13:59.556Z,91.13
2018-04-11T00:14:58.754Z,90.84
2018-04-11T00:15:58.651Z,91.03
2018-04-11T00:16:58.649Z,91.03
2018-04-11T00:17:58.505Z,90.55
2018-04-11T00:18:58.407Z,91.98
2018-04-11T00:19:58.287Z,91.41
2018-04-11T00:20:58.200Z,91.03
2018-04-11T00:21:58.107Z,91.79
2018-04-11T00:22:58.053Z,91.60
2018-04-11T00:23:58.035Z,91.60
2018-04-11T00:24:57.835Z,91.60
2018-04-11T00:25:57.744Z,91.79
2018-04-11T00:26:57.656Z,91.22
2018-04-11T00:27:57.596Z,91.41
2018-04-11T00:28:57.470Z,91.79
2018-04-11T00:29:57.379Z,91.79
2018-04-11T00:30:57.286Z,91.69
2018-04-11T00:31:57.196Z,91.31
2018-04-11T00:32:57.102Z,91.79
2018-04-11T00:33:57.044Z,92.08
2018-04-11T00:34:56.918Z,91.88
2018-04-11T00:35:56.828Z,91.69
2018-04-11T00:36:56.737Z,92.08
2018-04-11T00:37:56.647Z,91.69
2018-04-11T00:38:56.586Z,91.22
2018-04-11T00:39:56.462Z,91.22
2018-04-11T00:40:56.369Z,91.50
2018-04-11T00:41:56.284Z,91.60
2018-04-11T00:42:56.192Z,91.41
2018-04-11T00:43:56.131Z,91.22
2018-04-11T00:44:56.007Z,91.69
2018-04-11T00:45:55.914Z,91.22
2018-04-11T00:46:55.820Z,91.22
2018-04-11T00:47:56.130Z,91.60
2018-04-11T00:48:55.674Z,91.41
2018-04-11T00:49:55.553Z,91.41
2018-04-11T00:50:55.459Z,91.88
2018-04-11T00:51:55.375Z,91.41
2018-04-11T00:52:55.370Z,91.50
2018-04-11T00:53:55.221Z,91.98
2018-04-11T00:54:55.094Z,92.08
2018-04-11T00:55:55.002Z,91.69
2018-04-11T00:56:54.910Z,91.79
2018-04-11T00:57:54.818Z,91.69
2018-04-11T00:58:54.765Z,92.08
2018-04-11T00:59:54.727Z,91.88
2018-04-11T01:00:54.545Z,92.08
2018-04-11T01:01:54.451Z,92.08
2018-04-11T01:02:54.364Z,91.88
2018-04-11T01:03:54.306Z,92.17
2018-04-11T01:04:54.179Z,92.36
2018-04-11T01:05:54.086Z,91.88
2018-04-11T01:06:54.091Z,91.88
2018-04-11T01:07:53.901Z,92.17
2018-04-11T01:08:53.841Z,92.17
2018-04-11T01:09:53.718Z,92.36
2018-04-11T01:10:53.625Z,92.36
2018-04-11T01:11:53.534Z,92.36
2018-04-11T01:12:53.475Z,92.65
2018-04-11T01:13:53.480Z,92.36
2018-04-11T01:14:53.261Z,92.36
2018-04-11T01:15:53.168Z,92.93
2018-04-11T01:16:53.077Z,92.74
2018-04-11T01:17:52.985Z,92.36
2018-04-11T01:18:52.923Z,92.46
2018-04-11T01:19:52.804Z,92.93
2018-04-11T01:20:52.805Z,92.74
2018-04-11T01:21:52.620Z,92.36
2018-04-11T01:22:52.530Z,92.55
2018-04-11T01:23:52.480Z,92.27
2018-04-11T01:24:52.346Z,92.41
2018-04-11T01:25:52.255Z,92.36
2018-04-11T01:26:52.167Z,92.36
2018-04-11T01:27:52.077Z,92.65
2018-04-11T01:28:52.016Z,92.36
2018-04-11T01:29:51.891Z,92.98
2018-04-11T01:30:51.799Z,93.08
2018-04-11T01:31:51.710Z,93.37
2018-04-11T01:32:51.617Z,93.08
2018-04-11T01:33:51.527Z,92.98
2018-04-11T01:34:51.469Z,92.69
2018-04-11T01:35:51.343Z,93.08
2018-04-11T01:36:51.257Z,92.89
2018-04-11T01:37:51.162Z,93.08
2018-04-11T01:38:51.073Z,93.46
2018-04-11T01:39:51.014Z,93.27
2018-04-11T01:40:50.886Z,93.08
2018-04-11T01:41:50.797Z,93.37
2018-04-11T01:42:50.711Z,93.65
2018-04-11T01:43:50.618Z,94.22
2018-04-11T01:44:50.558Z,93.17
2018-04-11T01:45:50.436Z,93.84
2018-04-11T01:46:50.342Z,93.65
2018-04-11T01:47:50.265Z,93.93
2018-04-11T01:48:50.159Z,93.84
2018-04-11T01:49:50.102Z,93.84
2018-04-11T01:50:49.977Z,93.46
2018-04-11T01:51:49.889Z,93.84
2018-04-11T01:52:49.797Z,93.65
2018-04-11T01:53:49.703Z,93.84
2018-04-11T01:54:49.652Z,93.65
2018-04-11T01:55:49.525Z,93.65
2018-04-11T01:56:49.433Z,93.74
2018-04-11T01:57:49.346Z,94.13
2018-04-11T01:58:49.253Z,94.03
2018-04-11T01:59:49.197Z,94.60
2018-04-11T02:00:49.069Z,94.70
2018-04-11T02:01:48.985Z,94.89
2018-04-11T02:02:48.885Z,94.70
2018-04-11T02:03:48.794Z,94.51
2018-04-11T02:04:48.741Z,94.41
2018-04-11T02:05:48.617Z,94.32
2018-04-11T02:06:48.528Z,94.41
2018-04-11T02:07:48.433Z,94.32
2018-04-11T02:08:48.341Z,94.22
2018-04-11T02:09:48.282Z,94.70
2018-04-11T02:10:48.162Z,94.70
2018-04-11T02:11:48.067Z,94.70
2018-04-11T02:12:47.977Z,94.70
2018-04-11T02:13:47.885Z,94.70
2018-04-11T02:14:47.826Z,95.17
2018-04-11T02:15:47.702Z,94.60
2018-04-11T02:16:47.610Z,95.36
2018-04-11T02:17:47.522Z,95.56
2018-04-11T02:18:47.429Z,95.94
2018-04-11T02:19:47.371Z,96.08
2018-04-11T02:20:47.249Z,96.55
2018-04-11T02:21:47.156Z,96.94
2018-04-11T02:22:47.067Z,96.17
2018-04-11T02:23:46.979Z,96.27
2018-04-11T02:24:46.916Z,96.84
2018-04-11T02:25:46.793Z,96.75
2018-04-11T02:26:46.705Z,96.94
2018-04-11T02:27:46.608Z,96.08
2018-04-11T02:28:46.529Z,96.27
2018-04-11T02:29:46.459Z,95.79
2018-04-11T02:30:46.335Z,95.79
2018-04-11T02:31:46.247Z,95.98
2018-04-11T02:32:46.154Z,94.93
2018-04-11T02:33:46.066Z,95.98
2018-04-11T02:34:45.980Z,95.56
2018-04-11T02:35:45.914Z,95.17
2018-04-11T02:36:45.788Z,94.79
2018-04-11T02:37:45.696Z,94.98
2018-04-11T02:38:45.608Z,95.17
2018-04-11T02:39:45.548Z,94.70
2018-04-11T02:40:45.425Z,94.89
2018-04-11T02:41:45.331Z,95.08
2018-04-11T02:42:45.241Z,94.89
2018-04-11T02:43:45.241Z,95.17
2018-04-11T02:44:45.090Z,94.89
2018-04-11T02:45:45.002Z,94.79
2018-04-11T02:46:44.876Z,95.75
2018-04-11T02:47:44.781Z,95.46
2018-04-11T02:48:44.689Z,95.36
2018-04-11T02:49:44.599Z,95.27
2018-04-11T02:50:44.644Z,95.27
2018-04-11T02:51:44.420Z,95.17
2018-04-11T02:52:44.321Z,95.36
2018-04-11T02:53:44.238Z,95.56
2018-04-11T02:54:44.135Z,95.36
2018-04-11T02:55:44.079Z,96.03
2018-04-11T02:56:43.953Z,95.75
2018-04-11T02:57:43.957Z,95.56
2018-04-11T02:58:43.778Z,95.56
2018-04-11T02:59:43.679Z,95.17
2018-04-11T03:00:43.623Z,96.03
2018-04-11T03:01:43.495Z,95.75
2018-04-11T03:02:43.404Z,95.17
2018-04-11T03:03:43.314Z,95.36
2018-04-11T03:04:43.316Z,95.27
2018-04-11T03:05:43.166Z,95.36
2018-04-11T03:06:43.036Z,95.36
2018-04-11T03:07:42.945Z,95.27
2018-04-11T03:08:42.853Z,94.70
2018-04-11T03:09:42.761Z,94.60
2018-04-11T03:10:42.720Z,94.60
2018-04-11T03:11:42.669Z,95.08
2018-04-11T03:12:42.485Z,95.75
2018-04-11T03:13:42.397Z,94.32
2018-04-11T03:14:42.302Z,94.79
2018-04-11T03:15:42.244Z,94.13
2018-04-11T03:16:42.120Z,94.22
2018-04-11T03:17:42.027Z,94.98
2018-04-11T03:18:42.031Z,94.79
2018-04-11T03:19:41.843Z,94.60
2018-04-11T03:20:41.784Z,93.84
2018-04-11T03:21:41.660Z,95.27
2018-04-11T03:22:41.569Z,94.89
2018-04-11T03:23:41.476Z,93.94
2018-04-11T03:24:41.384Z,94.98
2018-04-11T03:25:41.417Z,95.08
2018-04-11T03:26:41.201Z,94.98
2018-04-11T03:27:41.109Z,94.32
2018-04-11T03:28:41.011Z,94.42
2018-04-11T03:29:40.922Z,93.94
2018-04-11T03:30:40.868Z,94.89
2018-04-11T03:31:40.740Z,94.79
2018-04-11T03:32:40.740Z,94.98
2018-04-11T03:33:40.555Z,95.12
2018-04-11T03:34:40.464Z,94.42
2018-04-11T03:35:40.440Z,95.27
2018-04-11T03:36:40.279Z,94.32
2018-04-11T03:37:40.186Z,94.32
2018-04-11T03:38:40.098Z,94.42
2018-04-11T03:39:40.096Z,93.84
2018-04-11T03:40:39.949Z,94.32
2018-04-11T03:41:39.819Z,94.03
2018-04-11T03:42:39.732Z,93.94
2018-04-11T03:43:39.640Z,94.22
2018-04-11T03:44:39.543Z,94.13
2018-04-11T03:45:39.488Z,94.22
2018-04-11T03:46:39.451Z,93.84
2018-04-11T03:47:39.269Z,93.84
2018-04-11T03:48:39.174Z,93.74
2018-04-11T03:49:39.083Z,93.37
2018-04-11T03:50:38.992Z,93.74
2018-04-11T03:51:38.936Z,93.55
2018-04-11T03:52:38.805Z,93.27
2018-04-11T03:53:38.803Z,93.55
2018-04-11T03:54:38.622Z,93.46
2018-04-11T03:55:38.535Z,93.46
2018-04-11T03:56:38.468Z,93.46
2018-04-11T03:57:38.345Z,92.99
2018-04-11T03:58:38.251Z,93.18
2018-04-11T03:59:38.159Z,93.18
2018-04-11T04:00:38.160Z,93.08
2018-04-11T04:01:38.026Z,93.18
2018-04-11T04:02:37.882Z,92.99
2018-04-11T04:03:37.790Z,92.99
2018-04-11T04:04:37.695Z,93.08
2018-04-11T04:05:37.607Z,92.99
2018-04-11T04:06:37.634Z,92.70
2018-04-11T04:07:37.426Z,92.60
2018-04-11T04:08:37.330Z,92.70
2018-04-11T04:09:37.235Z,92.51
2018-04-11T04:10:37.142Z,92.41
2018-04-11T04:11:37.081Z,92.32
2018-04-11T04:12:36.953Z,93.18
2018-04-11T04:13:36.865Z,92.32
2018-04-11T04:14:36.770Z,92.70
2018-04-11T04:15:36.676Z,92.89
2018-04-11T04:16:36.616Z,92.89
2018-04-11T04:17:36.492Z,92.70
2018-04-11T04:18:36.399Z,93.08
2018-04-11T04:19:36.311Z,92.89
2018-04-11T04:20:36.215Z,92.70
2018-04-11T04:21:36.160Z,93.37
2018-04-11T04:22:36.032Z,92.70
2018-04-11T04:23:35.936Z,93.18
2018-04-11T04:24:35.844Z,93.37
2018-04-11T04:25:35.750Z,93.84
2018-04-11T04:26:35.692Z,93.55
2018-04-11T04:27:35.567Z,93.74
2018-04-11T04:28:35.474Z,93.65
2018-04-11T04:29:35.381Z,94.03
2018-04-11T04:30:35.292Z,93.37
2018-04-11T04:31:35.229Z,93.55
2018-04-11T04:32:35.124Z,93.65
2018-04-11T04:33:35.010Z,93.27
2018-04-11T04:34:34.919Z,94.13
2018-04-11T04:35:34.826Z,94.03
2018-04-11T04:36:34.733Z,93.94
2018-04-11T04:37:34.675Z,93.65
2018-04-11T04:38:34.548Z,94.03
2018-04-11T04:39:34.455Z,93.94
2018-04-11T04:40:34.364Z,93.65
2018-04-11T04:41:34.273Z,93.74
2018-04-11T04:42:34.211Z,94.03
2018-04-11T04:43:34.134Z,94.22
2018-04-11T04:44:33.993Z,93.84
2018-04-11T04:45:33.904Z,94.22
2018-04-11T04:46:33.814Z,94.22
2018-04-11T04:47:33.753Z,94.13
2018-04-11T04:48:33.659Z,94.51
2018-04-11T04:49:33.531Z,94.79
2018-04-11T04:50:33.442Z,94.70
2018-04-11T04:51:33.347Z,94.79
2018-04-11T04:52:33.294Z,94.79
2018-04-11T04:53:33.167Z,94.70
2018-04-11T04:54:33.072Z,94.79
2018-04-11T04:55:32.984Z,95.17
2018-04-11T04:56:32.886Z,95.08
2018-04-11T04:57:32.829Z,94.98
2018-04-11T04:58:32.703Z,95.56
2018-04-11T04:59:32.612Z,95.56
2018-04-11T05:00:32.516Z,95.27
2018-04-11T05:01:32.426Z,95.46
2018-04-11T05:02:32.377Z,95.27
2018-04-11T05:03:32.244Z,95.56
2018-04-11T05:04:32.150Z,95.56
2018-04-11T05:05:32.057Z,95.56
2018-04-11T05:06:31.967Z,95.56
2018-04-11T05:07:31.906Z,95.36
2018-04-11T05:08:31.783Z,95.46
2018-04-11T05:09:31.689Z,95.65
2018-04-11T05:10:31.599Z,95.27
2018-04-11T05:11:31.505Z,95.17
2018-04-11T05:12:31.452Z,95.17
2018-04-11T05:13:31.323Z,95.36
2018-04-11T05:14:31.230Z,95.46
2018-04-11T05:15:31.137Z,95.46
2018-04-11T05:16:31.045Z,94.03
2018-04-11T05:17:30.985Z,94.32
2018-04-11T05:18:30.857Z,93.94
2018-04-11T05:19:30.769Z,93.65
2018-04-11T05:20:30.677Z,93.18
2018-04-11T05:21:30.581Z,92.70
2018-04-11T05:22:30.525Z,93.27
2018-04-11T05:23:30.399Z,93.18
2018-04-11T05:24:30.308Z,93.55
2018-04-11T05:25:30.215Z,93.37
2018-04-11T05:26:30.122Z,93.55
2018-04-11T05:27:30.060Z,93.08
2018-04-11T05:28:29.937Z,93.65
2018-04-11T05:29:29.847Z,93.27
2018-04-11T05:30:29.850Z,93.74
2018-04-11T05:31:29.660Z,93.84
2018-04-11T05:32:29.602Z,93.18
2018-04-11T05:33:29.477Z,92.79
2018-04-11T05:34:29.398Z,92.89
2018-04-11T05:35:29.292Z,92.60
2018-04-11T05:36:29.200Z,93.65
2018-04-11T05:37:29.144Z,93.46
2018-04-11T05:38:29.017Z,92.89
2018-04-11T05:39:28.925Z,93.18
2018-04-11T05:40:28.832Z,92.60
2018-04-11T05:41:28.740Z,92.70
2018-04-11T05:42:28.675Z,93.27
2018-04-11T05:43:28.556Z,93.08
2018-04-11T05:44:28.567Z,92.99
2018-04-11T05:45:28.372Z,93.46
2018-04-11T05:46:28.281Z,93.37
2018-04-11T05:47:28.186Z,93.08
2018-04-11T05:48:28.127Z,93.74
2018-04-11T05:49:28.000Z,93.37
2018-04-11T05:50:27.909Z,93.55
2018-04-11T05:51:27.908Z,93.84
2018-04-11T05:52:27.727Z,92.79
2018-04-11T05:53:27.731Z,92.79
2018-04-11T05:54:27.539Z,93.18
2018-04-11T05:55:27.450Z,92.22
2018-04-11T05:56:27.357Z,92.41
2018-04-11T05:57:27.268Z,92.22
2018-04-11T05:58:27.307Z,92.22
2018-04-11T05:59:27.080Z,92.89
2018-04-11T06:00:26.988Z,92.70
2018-04-11T06:01:26.898Z,92.70
2018-04-11T06:02:26.807Z,92.51
2018-04-11T06:03:26.748Z,92.70
2018-04-11T06:04:26.625Z,93.74
2018-04-11T06:05:26.635Z,92.99
2018-04-11T06:06:26.436Z,93.27
2018-04-11T06:07:26.347Z,93.55
2018-04-11T06:08:26.285Z,93.55
2018-04-11T06:09:26.157Z,93.08
2018-04-11T06:10:26.070Z,92.22
2018-04-11T06:11:25.974Z,92.60
2018-04-11T06:12:25.975Z,92.79
2018-04-11T06:13:25.827Z,92.89
2018-04-11T06:14:25.707Z,92.79
2018-04-11T06:15:25.607Z,92.60
2018-04-11T06:16:25.520Z,93.08
2018-04-11T06:17:25.424Z,93.08
2018-04-11T06:18:25.370Z,93.46
2018-04-11T06:19:25.346Z,93.84
2018-04-11T06:20:25.149Z,93.55
2018-04-11T06:21:25.059Z,92.60
2018-04-11T06:22:24.966Z,92.99
2018-04-11T06:23:24.908Z,93.37
2018-04-11T06:24:24.784Z,93.55
2018-04-11T06:25:24.693Z,94.03
2018-04-11T06:26:24.692Z,94.60
2018-04-11T06:27:24.505Z,94.03
2018-04-11T06:28:24.446Z,93.55
2018-04-11T06:29:24.320Z,92.79
2018-04-11T06:30:24.229Z,93.55
2018-04-11T06:31:24.135Z,93.55
2018-04-11T06:32:24.041Z,92.51
2018-04-11T06:33:24.078Z,92.22
2018-04-11T06:34:23.859Z,92.70
2018-04-11T06:35:23.766Z,92.89
2018-04-11T06:36:23.679Z,91.94
2018-04-11T06:37:23.580Z,92.60
2018-04-11T06:38:23.524Z,92.60
2018-04-11T06:39:23.395Z,92.22
2018-04-11T06:40:23.303Z,92.03
2018-04-11T06:41:23.213Z,92.03
2018-04-11T06:42:23.120Z,91.75
2018-04-11T06:43:23.062Z,91.65
2018-04-11T06:44:22.933Z,91.65
2018-04-11T06:45:22.843Z,91.75
2018-04-11T06:46:22.751Z,91.84
2018-04-11T06:47:22.708Z,91.46
2018-04-11T06:48:22.598Z,91.56
2018-04-11T06:49:22.476Z,92.41
2018-04-11T06:50:22.381Z,92.79
2018-04-11T06:51:22.283Z,92.60
2018-04-11T06:52:22.192Z,92.03
2018-04-11T06:53:22.105Z,91.94
2018-04-11T06:54:22.042Z,91.27
2018-04-11T06:55:21.919Z,91.65
2018-04-11T06:56:21.825Z,91.65
2018-04-11T06:57:21.730Z,91.65
2018-04-11T06:58:21.693Z,91.75
2018-04-11T06:59:21.578Z,91.75
2018-04-11T07:00:21.449Z,91.37
2018-04-11T07:01:21.360Z,91.27
2018-04-11T07:02:21.266Z,91.65
2018-04-11T07:03:21.175Z,91.46
2018-04-11T07:04:21.114Z,90.51
2018-04-11T07:05:20.990Z,90.70
2018-04-11T07:06:20.898Z,90.51
2018-04-11T07:07:20.802Z,91.37
2018-04-11T07:08:20.710Z,91.27
2018-04-11T07:09:20.653Z,90.80
2018-04-11T07:10:20.531Z,91.08
2018-04-11T07:11:20.433Z,91.17
2018-04-11T07:12:20.340Z,90.61
2018-04-11T07:13:20.250Z,91.27
2018-04-11T07:14:20.188Z,90.99
2018-04-11T07:15:20.064Z,91.08
2018-04-11T07:16:19.971Z,90.99
2018-04-11T07:17:19.877Z,90.51
2018-04-11T07:18:19.787Z,90.61
2018-04-11T07:19:19.725Z,90.80
2018-04-11T07:20:19.600Z,90.61
2018-04-11T07:21:19.507Z,90.32
2018-04-11T07:22:19.416Z,90.32
2018-04-11T07:23:19.320Z,90.32
2018-04-11T07:24:19.260Z,90.99
2018-04-11T07:25:19.136Z,90.51
2018-04-11T07:26:19.042Z,91.17
2018-04-11T07:27:18.949Z,90.89
2018-04-11T07:28:18.855Z,90.70
2018-04-11T07:29:18.797Z,90.22
2018-04-11T07:30:18.670Z,89.94
2018-04-11T07:31:18.576Z,90.61
2018-04-11T07:32:18.484Z,89.75
2018-04-11T07:33:18.393Z,90.32
2018-04-11T07:34:18.334Z,90.13
2018-04-11T07:35:18.207Z,90.13
2018-04-11T07:36:18.131Z,89.94
2018-04-11T07:37:18.025Z,90.32
2018-04-11T07:38:17.930Z,89.75
2018-04-11T07:39:17.869Z,90.03
2018-04-11T07:40:17.746Z,90.13
2018-04-11T07:41:17.652Z,90.13
2018-04-11T07:42:17.562Z,89.56
2018-04-11T07:43:17.466Z,90.03
2018-04-11T07:44:17.408Z,90.42
2018-04-11T07:45:17.281Z,90.32
2018-04-11T07:46:17.190Z,89.75
2018-04-11T07:47:17.095Z,90.03
2018-04-11T07:48:17.002Z,90.03
2018-04-11T07:49:16.946Z,90.17
2018-04-11T07:50:16.817Z,89.56
2018-04-11T07:51:16.726Z,89.84
2018-04-11T07:52:16.635Z,89.75
2018-04-11T07:53:16.539Z,89.84
2018-04-11T07:54:16.481Z,90.17
2018-04-11T07:55:16.354Z,89.61
2018-04-11T07:56:16.264Z,90.27
2018-04-11T07:57:16.276Z,89.32
2018-04-11T07:58:16.075Z,89.61
2018-04-11T07:59:16.016Z,89.70
2018-04-11T08:00:15.892Z,90.08
2018-04-11T08:01:15.799Z,89.32
2018-04-11T08:02:15.708Z,88.18
2018-04-11T08:03:15.712Z,89.79
2018-04-11T08:04:15.621Z,90.46
2018-04-11T08:05:15.467Z,88.93
2018-04-11T08:06:15.337Z,89.51
2018-04-11T08:07:15.260Z,90.46
2018-04-11T08:08:15.156Z,89.51
2018-04-11T08:09:15.064Z,87.89
2018-04-11T08:10:15.002Z,88.93
2018-04-11T08:11:14.965Z,89.89
2018-04-11T08:12:14.785Z,90.08
2018-04-11T08:13:14.693Z,88.98
2018-04-11T08:14:14.601Z,87.93
2018-04-11T08:15:14.539Z,88.70
2018-04-11T08:16:14.420Z,88.98
2018-04-11T08:17:14.334Z,90.50
2018-04-11T08:18:14.343Z,88.70
2018-04-11T08:19:14.140Z,89.17
2018-04-11T08:20:14.082Z,88.12
2018-04-11T08:21:13.958Z,89.17
2018-04-11T08:22:13.868Z,89.07
2018-04-11T08:23:13.815Z,90.12
2018-04-11T08:24:13.683Z,89.65
2018-04-11T08:25:13.718Z,88.41
2018-04-11T08:26:13.495Z,88.51
2018-04-11T08:27:13.418Z,89.75
2018-04-11T08:28:13.312Z,88.70
2018-04-11T08:29:13.223Z,89.46
2018-04-11T08:30:13.163Z,88.51
2018-04-11T08:31:13.037Z,89.46
2018-04-11T08:32:13.039Z,89.94
2018-04-11T08:33:12.857Z,88.60
2018-04-11T08:34:12.765Z,88.98
2018-04-11T08:35:12.703Z,89.36
2018-04-11T08:36:12.579Z,88.79
2018-04-11T08:37:12.491Z,89.36
2018-04-11T08:38:12.396Z,89.26
2018-04-11T08:39:12.414Z,88.03
2018-04-11T08:40:12.254Z,89.55
2018-04-11T08:41:12.124Z,89.26
2018-04-11T08:42:12.031Z,89.46
2018-04-11T08:43:11.939Z,90.17
2018-04-11T08:44:11.847Z,88.74
2018-04-11T08:45:11.788Z,87.60
2018-04-11T08:46:11.762Z,89.22
2018-04-11T08:47:11.574Z,88.55
2018-04-11T08:48:11.482Z,88.84
2018-04-11T08:49:11.390Z,88.84
2018-04-11T08:50:11.337Z,89.03
2018-04-11T08:51:11.209Z,88.84
2018-04-11T08:52:11.117Z,89.69
2018-04-11T08:53:11.124Z,88.45
2018-04-11T08:54:10.936Z,89.31
2018-04-11T08:55:10.880Z,88.26
2018-04-11T08:56:10.753Z,89.69
2018-04-11T08:57:10.665Z,89.69
2018-04-11T08:58:10.570Z,90.08
2018-04-11T08:59:10.493Z,89.89
2018-04-11T09:00:10.516Z,89.89
2018-04-11T09:01:10.300Z,89.60
2018-04-11T09:02:10.210Z,89.12
2018-04-11T09:03:10.119Z,89.07
2018-04-11T09:04:10.029Z,88.59
2018-04-11T09:05:09.971Z,88.12
2018-04-11T09:06:09.941Z,90.22
2018-04-11T09:07:09.759Z,90.31
2018-04-11T09:08:09.664Z,88.78
2018-04-11T09:09:09.576Z,89.54
2018-04-11T09:10:09.517Z,90.12
2018-04-11T09:11:09.395Z,90.79
2018-04-11T09:12:09.308Z,89.17
2018-04-11T09:13:09.213Z,89.64
2018-04-11T09:14:09.125Z,89.07
2018-04-11T09:15:09.038Z,89.93
2018-04-11T09:16:08.975Z,90.22
2018-04-11T09:17:08.853Z,89.54
2018-04-11T09:18:08.762Z,89.31
2018-04-11T09:19:08.675Z,88.64
2018-04-11T09:20:08.589Z,91.21
2018-04-11T09:21:08.529Z,91.12
2018-04-11T09:22:08.408Z,91.50
2018-04-11T09:23:08.318Z,90.55
2018-04-11T09:24:08.226Z,88.35
2018-04-11T09:25:08.135Z,91.12
2018-04-11T09:26:08.107Z,90.93
2018-04-11T09:27:07.956Z,91.88
2018-04-11T09:28:07.867Z,91.16
2018-04-11T09:29:07.777Z,90.02
2018-04-11T09:30:07.687Z,90.31
2018-04-11T09:31:07.628Z,87.54
2018-04-11T09:32:07.507Z,91.97
2018-04-11T09:33:07.423Z,88.92
2018-04-11T09:34:07.331Z,90.92
2018-04-11T09:35:07.244Z,90.31
2018-04-11T09:36:07.184Z,88.11
2018-04-11T09:37:07.064Z,88.40
2018-04-11T09:38:06.975Z,90.50
2018-04-11T09:39:06.883Z,92.79
2018-04-11T09:40:06.811Z,91.11
2018-04-11T09:41:06.742Z,90.25
2018-04-11T09:42:06.618Z,89.59
2018-04-11T09:43:06.530Z,89.34
2018-04-11T09:44:06.440Z,91.25
2018-04-11T09:45:06.352Z,88.39
2018-04-11T09:46:06.301Z,89.97
2018-04-11T09:47:06.182Z,89.30
2018-04-11T09:48:06.090Z,91.21
2018-04-11T09:49:06.004Z,89.78
2018-04-11T09:50:05.915Z,89.87
2018-04-11T09:51:05.855Z,89.49
2018-04-11T09:52:05.750Z,90.16
2018-04-11T09:53:05.648Z,89.20
2018-04-11T09:54:05.558Z,90.35
2018-04-11T09:55:05.470Z,88.29
2018-04-11T09:56:05.415Z,89.87
2018-04-11T09:57:05.297Z,90.25
2018-04-11T09:58:05.214Z,89.92
2018-04-11T09:59:05.119Z,89.64
2018-04-11T10:00:05.032Z,89.83
2018-04-11T10:01:04.975Z,90.31
2018-04-11T10:02:04.855Z,90.02
2018-04-11T10:03:04.766Z,90.06
2018-04-11T10:04:04.681Z,90.16
2018-04-11T10:05:04.590Z,90.06
2018-04-11T10:06:04.534Z,90.54
2018-04-11T10:07:04.416Z,90.06
2018-04-11T10:08:04.331Z,89.44
2018-04-11T10:09:04.239Z,87.91
2018-04-11T10:10:04.152Z,91.06
2018-04-11T10:11:04.066Z,89.15
2018-04-11T10:12:04.007Z,90.97
2018-04-11T10:13:03.886Z,89.53
2018-04-11T10:14:03.799Z,88.77
2018-04-11T10:15:03.711Z,88.96
2018-04-11T10:16:03.628Z,89.25
2018-04-11T10:17:03.570Z,89.78
2018-04-11T10:18:03.448Z,90.06
2018-04-11T10:19:03.385Z,88.82
2018-04-11T10:20:03.274Z,90.54
2018-04-11T10:21:03.184Z,89.59
2018-04-11T10:22:03.130Z,89.78
2018-04-11T10:23:03.008Z,89.11
2018-04-11T10:24:02.924Z,89.30
2018-04-11T10:25:02.834Z,88.34
2018-04-11T10:26:02.746Z,88.25
2018-04-11T10:27:02.690Z,91.40
2018-04-11T10:28:02.572Z,89.20
2018-04-11T10:29:02.480Z,89.30
2018-04-11T10:30:02.489Z,89.20
2018-04-11T10:31:02.309Z,90.06
2018-04-11T10:32:02.272Z,89.73
2018-04-11T10:33:02.132Z,88.49
2018-04-11T10:34:02.044Z,89.35
2018-04-11T10:35:01.959Z,88.97
2018-04-11T10:36:01.864Z,88.87
2018-04-11T10:37:01.810Z,90.59
2018-04-11T10:38:01.689Z,89.54
2018-04-11T10:39:01.616Z,90.25
2018-04-11T10:40:01.523Z,90.25
2018-04-11T10:41:01.432Z,90.35
2018-04-11T10:42:01.370Z,88.82
2018-04-11T10:43:01.250Z,89.97
2018-04-11T10:44:01.259Z,89.39
2018-04-11T10:45:01.070Z,88.92
2018-04-11T10:46:00.985Z,91.11
2018-04-11T10:47:00.932Z,89.20
2018-04-11T10:48:00.806Z,89.20
2018-04-11T10:49:00.718Z,89.39
2018-04-11T10:50:00.630Z,88.20
2018-04-11T10:51:00.635Z,90.39
2018-04-11T10:52:00.490Z,89.06
2018-04-11T10:53:00.367Z,90.16
2018-04-11T10:54:01.273Z,88.86
2018-04-11T10:55:00.193Z,88.09
2018-04-11T10:56:00.101Z,89.05
2018-04-11T10:57:00.051Z,89.34
2018-04-11T10:58:00.019Z,89.34
2018-04-11T10:58:59.840Z,89.38
2018-04-11T10:59:59.754Z,88.56
2018-04-11T11:00:59.668Z,88.70
2018-04-11T11:01:59.610Z,85.21
2018-04-11T11:02:59.489Z,87.80
2018-04-11T11:03:59.407Z,87.23
2018-04-11T11:04:59.406Z,87.90
2018-04-11T11:05:59.232Z,86.08
2018-04-11T11:06:59.194Z,86.21
2018-04-11T11:07:59.059Z,86.16
2018-04-11T11:08:58.971Z,85.68
2018-04-11T11:09:58.890Z,84.72
2018-04-11T11:10:58.802Z,86.64
2018-04-11T11:11:58.844Z,85.97
2018-04-11T11:12:58.631Z,84.15
2018-04-11T11:13:58.545Z,83.63
2018-04-11T11:14:58.460Z,85.06
2018-04-11T11:15:58.375Z,85.83
2018-04-11T11:16:58.327Z,86.36
2018-04-11T11:17:58.207Z,87.13
2018-04-11T11:18:58.211Z,86.55
2018-04-11T11:19:58.032Z,86.61
2018-04-11T11:20:57.957Z,87.76
2018-04-11T11:21:57.906Z,85.21
2018-04-11T11:22:57.778Z,87.90
2018-04-11T11:23:57.696Z,87.13
2018-04-11T11:24:57.609Z,89.19
2018-04-11T11:25:57.616Z,86.13
2018-04-11T11:26:57.440Z,88.04
2018-04-11T11:27:57.392Z,86.41
2018-04-11T11:28:57.266Z,87.62
2018-04-11T11:29:57.183Z,86.85
2018-04-11T11:30:57.096Z,87.52
2018-04-11T11:31:57.017Z,88.19
2018-04-11T11:32:57.047Z,87.71
2018-04-11T11:33:56.906Z,88.19
2018-04-11T11:34:56.754Z,88.48
2018-04-11T11:35:56.668Z,88.38
2018-04-11T11:36:56.586Z,87.71
2018-04-11T11:37:56.531Z,87.57
2018-04-11T11:38:56.524Z,89.20
2018-04-11T11:39:56.331Z,87.29
2018-04-11T11:40:56.242Z,87.62
2018-04-11T11:41:56.161Z,86.37
2018-04-11T11:42:56.103Z,87.43
2018-04-11T11:43:55.980Z,86.28
2018-04-11T11:44:55.895Z,87.57
2018-04-11T11:45:55.817Z,86.66
2018-04-11T11:46:55.724Z,86.90
2018-04-11T11:47:55.671Z,87.33
2018-04-11T11:48:55.551Z,87.43
2018-04-11T11:49:55.470Z,88.29
2018-04-11T11:50:55.393Z,87.62
2018-04-11T11:51:55.291Z,87.90
2018-04-11T11:52:55.242Z,87.62
2018-04-11T11:53:55.120Z,88.00
2018-04-11T11:54:55.032Z,87.43
2018-04-11T11:55:54.945Z,87.62
2018-04-11T11:56:54.864Z,88.48
2018-04-11T11:57:54.809Z,87.29
2018-04-11T11:58:54.687Z,86.33
2018-04-11T11:59:54.601Z,87.76
2018-04-11T12:00:54.513Z,87.76
2018-04-11T12:01:54.430Z,87.81
2018-04-11T12:02:54.378Z,86.61
2018-04-11T12:03:54.255Z,86.61
2018-04-11T12:04:54.209Z,87.37
2018-04-11T12:05:54.081Z,87.03
2018-04-11T12:06:53.994Z,89.86
2018-04-11T12:07:53.943Z,86.65
2018-04-11T12:08:53.826Z,86.90
2018-04-11T12:09:53.734Z,86.65
2018-04-11T12:10:53.648Z,85.53
2018-04-11T12:11:53.616Z,86.21
2018-04-11T12:12:53.519Z,85.21
2018-04-11T12:13:53.390Z,84.26
2018-04-11T12:14:53.303Z,85.08
2018-04-11T12:15:53.215Z,85.36
2018-04-11T12:16:53.132Z,86.76
2018-04-11T12:17:53.079Z,85.61
2018-04-11T12:18:52.958Z,86.28
2018-04-11T12:19:52.871Z,88.76
2018-04-11T12:20:52.784Z,87.23
2018-04-11T12:21:52.700Z,86.37
2018-04-11T12:22:52.647Z,87.04
2018-04-11T12:23:52.529Z,86.37
2018-04-11T12:24:52.442Z,87.43
2018-04-11T12:25:52.358Z,87.62
2018-04-11T12:26:52.265Z,86.85
2018-04-11T12:27:52.215Z,86.85
2018-04-11T12:28:52.099Z,85.80
2018-04-11T12:29:52.007Z,87.57
2018-04-11T12:30:51.924Z,86.85
2018-04-11T12:31:51.835Z,88.00
2018-04-11T12:32:51.784Z,89.15
2018-04-11T12:33:51.658Z,87.14
2018-04-11T12:34:51.574Z,86.32
2018-04-11T12:35:51.489Z,86.61
2018-04-11T12:36:51.400Z,88.32
2018-04-11T12:37:51.350Z,86.12
2018-04-11T12:38:51.227Z,86.31
2018-04-11T12:39:51.140Z,84.45
2018-04-11T12:40:51.060Z,84.83
2018-04-11T12:41:50.968Z,84.74
2018-04-11T12:42:50.882Z,86.08
2018-04-11T12:43:50.825Z,85.50
2018-04-11T12:44:50.709Z,85.02
2018-04-11T12:45:50.649Z,84.16
2018-04-11T12:46:50.536Z,85.46
2018-04-11T12:47:50.450Z,86.08
2018-04-11T12:48:50.397Z,85.02
2018-04-11T12:49:50.291Z,86.13
2018-04-11T12:50:50.191Z,84.22